createdAt,value
2018-09-27T00:01:46.531Z,1.50
2018-09-27T00:04:14.756Z,1.60
2018-09-27T00:06:42.977Z,1.50
2018-09-27T00:09:11.836Z,1.40
2018-09-27T00:11:40.501Z,1.80
2018-09-27T00:14:08.760Z,1.67
2018-09-27T00:16:37.228Z,1.60
2018-09-27T00:19:05.780Z,1.57
2018-09-27T00:21:34.787Z,1.43
2018-09-27T00:24:03.406Z,1.83
2018-09-27T00:26:31.648Z,1.70
2018-09-27T00:28:59.871Z,1.80
2018-09-27T00:31:28.097Z,1.60
2018-09-27T00:33:57.108Z,1.47
2018-09-27T00:36:25.324Z,1.87
2018-09-27T00:38:53.543Z,1.60
2018-09-27T00:41:21.783Z,1.80
2018-09-27T00:43:51.053Z,1.97
2018-09-27T00:46:19.255Z,1.50
2018-09-27T00:48:47.707Z,1.67
2018-09-27T00:51:17.569Z,1.60
2018-09-27T00:53:45.922Z,1.60
2018-09-27T00:56:14.143Z,1.70
2018-09-27T00:58:44.111Z,1.63
2018-09-27T01:01:12.315Z,1.60
2018-09-27T01:03:40.562Z,1.97
2018-09-27T01:06:09.095Z,1.67
2018-09-27T01:08:38.848Z,1.70
2018-09-27T01:11:07.072Z,1.80
2018-09-27T01:13:35.769Z,1.90
2018-09-27T01:16:03.988Z,1.97
2018-09-27T01:18:32.249Z,1.50
2018-09-27T01:21:00.464Z,1.63
2018-09-27T01:23:28.701Z,1.60
2018-09-27T01:25:56.977Z,1.60
2018-09-27T01:28:26.920Z,2.00
2018-09-27T01:30:56.098Z,1.77
2018-09-27T01:33:24.328Z,1.57
2018-09-27T01:35:53.947Z,1.87
2018-09-27T01:38:22.458Z,1.63
2018-09-27T01:40:50.669Z,1.60
2018-09-27T01:43:19.312Z,2.00
2018-09-27T01:45:47.558Z,1.80
2018-09-27T01:48:16.731Z,2.13
2018-09-27T01:50:45.304Z,1.93
2018-09-27T01:53:13.540Z,1.87
2018-09-27T01:55:41.836Z,1.83
2018-09-27T01:58:10.073Z,1.70
2018-09-27T02:00:39.751Z,1.80
2018-09-27T02:03:07.994Z,1.77
2018-09-27T02:05:36.198Z,1.80
2018-09-27T02:08:04.428Z,1.80
2018-09-27T02:10:32.681Z,1.80
2018-09-27T02:13:00.952Z,2.00
2018-09-27T02:15:29.240Z,1.80
2018-09-27T02:17:57.478Z,1.80
2018-09-27T02:20:29.517Z,1.93
2018-09-27T02:22:57.744Z,1.90
2018-09-27T02:25:25.968Z,2.40
2018-09-27T02:27:54.577Z,1.83
2018-09-27T02:30:22.830Z,1.60
2018-09-27T02:32:51.059Z,1.70
2018-09-27T02:35:19.278Z,1.90
2018-09-27T02:37:47.527Z,1.87
2018-09-27T02:40:16.867Z,1.93
2018-09-27T02:42:45.114Z,2.00
2018-09-27T02:45:13.378Z,2.00
2018-09-27T02:47:43.292Z,1.90
2018-09-27T02:50:11.554Z,1.80
2018-09-27T02:52:41.991Z,1.80
2018-09-27T02:55:10.230Z,1.57
2018-09-27T02:57:40.138Z,2.97
2018-09-27T03:00:08.576Z,1.80
2018-09-27T03:02:36.859Z,1.90
2018-09-27T03:05:06.920Z,1.90
2018-09-27T03:07:35.533Z,2.30
2018-09-27T03:10:04.024Z,1.93
2018-09-27T03:12:32.412Z,1.80
2018-09-27T03:15:00.645Z,1.80
2018-09-27T03:17:28.849Z,2.10
2018-09-27T03:19:57.066Z,2.10
2018-09-27T03:22:25.305Z,1.90
2018-09-27T03:24:53.656Z,1.90
2018-09-27T03:27:21.917Z,2.20
2018-09-27T03:29:50.160Z,1.97
2018-09-27T03:32:18.735Z,1.93
2018-09-27T03:34:46.952Z,2.33
2018-09-27T03:37:15.528Z,2.00
2018-09-27T03:39:43.797Z,2.10
2018-09-27T03:42:11.997Z,1.90
2018-09-27T03:44:40.231Z,2.17
2018-09-27T03:47:08.538Z,2.10
2018-09-27T03:49:36.699Z,2.00
2018-09-27T03:52:04.907Z,2.00
2018-09-27T03:54:33.141Z,2.07
2018-09-27T03:57:01.590Z,1.90
2018-09-27T03:59:29.888Z,1.97
2018-09-27T04:01:58.109Z,2.30
2018-09-27T04:04:26.371Z,1.87
2018-09-27T04:06:54.591Z,2.27
2018-09-27T04:09:22.835Z,1.97
2018-09-27T04:11:51.144Z,2.53
2018-09-27T04:14:19.369Z,2.53
2018-09-27T04:16:48.396Z,2.73
2018-09-27T04:19:16.609Z,2.50
2018-09-27T04:21:44.904Z,2.50
2018-09-27T04:24:13.083Z,2.60
2018-09-27T04:26:41.328Z,2.30
2018-09-27T04:29:09.591Z,3.13
2018-09-27T04:31:37.881Z,2.63
2018-09-27T04:34:06.140Z,2.47
2018-09-27T04:36:34.876Z,2.90
2018-09-27T04:39:03.248Z,2.57
2018-09-27T04:41:32.097Z,2.63
2018-09-27T04:44:00.287Z,2.50
2018-09-27T04:46:28.511Z,2.70
2018-09-27T04:48:56.714Z,2.67
2018-09-27T04:51:25.033Z,3.27
2018-09-27T04:53:53.257Z,2.27
2018-09-27T04:56:21.718Z,2.70
2018-09-27T04:58:49.952Z,2.70
2018-09-27T05:01:18.210Z,2.70
2018-09-27T05:03:46.450Z,2.93
2018-09-27T05:06:14.735Z,2.70
2018-09-27T05:08:43.040Z,2.43
2018-09-27T05:11:11.280Z,2.93
2018-09-27T05:13:40.501Z,3.17
2018-09-27T05:16:08.829Z,3.00
2018-09-27T05:18:37.014Z,3.00
2018-09-27T05:21:05.292Z,2.70
2018-09-27T05:23:33.495Z,2.87
2018-09-27T05:26:01.908Z,2.80
2018-09-27T05:28:31.073Z,3.00
2018-09-27T05:31:00.185Z,2.73
2018-09-27T05:33:28.452Z,2.93
2018-09-27T05:35:56.956Z,2.70
2018-09-27T05:38:25.834Z,2.80
2018-09-27T05:40:54.263Z,3.00
2018-09-27T05:43:22.491Z,3.37
2018-09-27T05:45:50.719Z,3.07
2018-09-27T05:48:18.921Z,3.00
2018-09-27T05:50:47.685Z,2.70
2018-09-27T05:53:16.117Z,2.80
2018-09-27T05:55:44.390Z,2.83
2018-09-27T05:58:12.837Z,3.10
2018-09-27T06:00:41.082Z,2.97
2018-09-27T06:03:10.096Z,3.03
2018-09-27T06:05:38.315Z,2.97
2018-09-27T06:08:06.877Z,2.90
2018-09-27T06:10:35.080Z,2.70
2018-09-27T06:13:03.312Z,2.40
2018-09-27T06:15:31.585Z,2.67
2018-09-27T06:17:59.808Z,2.63
2018-09-27T06:20:28.292Z,2.57
2018-09-27T06:22:56.524Z,2.90
2018-09-27T06:25:24.730Z,2.60
2018-09-27T06:27:52.964Z,2.57
2018-09-27T06:30:21.491Z,2.57
2018-09-27T06:32:49.700Z,2.73
2018-09-27T06:35:18.477Z,2.73
2018-09-27T06:37:46.705Z,2.70
2018-09-27T06:40:14.918Z,3.10
2018-09-27T06:42:43.628Z,2.77
2018-09-27T06:45:12.558Z,2.70
2018-09-27T06:47:40.793Z,2.80
2018-09-27T06:50:09.907Z,2.90
2018-09-27T06:52:38.170Z,2.53
2018-09-27T06:55:06.454Z,2.80
2018-09-27T06:57:35.497Z,2.80
2018-09-27T07:00:03.880Z,2.70
2018-09-27T07:02:32.203Z,2.93
2018-09-27T07:05:00.412Z,3.07
2018-09-27T07:07:29.272Z,2.57
2018-09-27T07:09:57.492Z,3.03
2018-09-27T07:12:25.965Z,3.07
2018-09-27T07:14:53.915Z,3.17
2018-09-27T07:17:22.176Z,2.90
2018-09-27T07:19:50.403Z,3.10
2018-09-27T07:22:18.679Z,2.70
2018-09-27T07:24:47.300Z,2.53
2018-09-27T07:27:15.555Z,2.83
2018-09-27T07:29:43.780Z,2.80
2018-09-27T07:32:12.033Z,2.90
2018-09-27T07:34:40.571Z,2.90
2018-09-27T07:37:08.962Z,2.67
2018-09-27T07:39:37.239Z,3.10
2018-09-27T07:42:05.460Z,2.83
2018-09-27T07:44:33.714Z,3.20
2018-09-27T07:47:01.921Z,3.00
2018-09-27T07:49:30.134Z,2.60
2018-09-27T07:51:58.371Z,3.20
2018-09-27T07:54:26.699Z,3.40
2018-09-27T07:56:54.952Z,3.10
2018-09-27T07:59:23.181Z,3.13
2018-09-27T08:01:51.401Z,3.20
2018-09-27T08:04:21.110Z,2.90
2018-09-27T08:06:49.215Z,2.90
2018-09-27T08:09:17.894Z,2.77
2018-09-27T08:11:46.228Z,2.77
2018-09-27T08:14:14.720Z,3.27
2018-09-27T08:16:42.973Z,3.43
2018-09-27T08:19:11.192Z,3.07
2018-09-27T08:21:39.453Z,3.50
2018-09-27T08:24:07.755Z,3.20
2018-09-27T08:26:36.061Z,3.27
2018-09-27T08:29:05.388Z,3.03
2018-09-27T08:31:33.614Z,3.90
2018-09-27T08:34:01.830Z,3.27
2018-09-27T08:36:30.151Z,3.17
2018-09-27T08:38:58.394Z,3.80
2018-09-27T08:41:26.621Z,3.13
2018-09-27T08:43:54.854Z,3.60
2018-09-27T08:46:23.068Z,3.60
2018-09-27T08:48:51.660Z,3.40
2018-09-27T08:51:19.880Z,3.00
2018-09-27T08:53:48.601Z,3.33
2018-09-27T08:56:16.885Z,3.20
2018-09-27T08:58:46.927Z,3.30
2018-09-27T09:01:15.906Z,3.00
2018-09-27T09:03:44.316Z,3.50
2018-09-27T09:06:12.400Z,3.10
2018-09-27T09:08:40.867Z,2.90
2018-09-27T09:11:09.084Z,3.47
2018-09-27T09:13:37.389Z,3.00
2018-09-27T09:16:05.583Z,3.67
2018-09-27T09:18:34.969Z,3.73
2018-09-27T09:21:04.249Z,5.93
2018-09-27T09:23:32.520Z,3.27
2018-09-27T09:26:00.793Z,3.40
2018-09-27T09:28:29.008Z,2.93
2018-09-27T09:30:57.644Z,3.37
2018-09-27T09:33:26.659Z,2.97
2018-09-27T09:35:54.904Z,2.93
2018-09-27T09:38:23.089Z,2.70
2018-09-27T09:40:51.527Z,3.13
2018-09-27T09:43:19.741Z,3.23
2018-09-27T09:45:48.095Z,3.13
2018-09-27T09:48:16.683Z,3.07
2018-09-27T09:50:45.291Z,3.13
2018-09-27T09:53:14.740Z,3.63
2018-09-27T09:55:42.953Z,3.00
2018-09-27T09:58:11.196Z,3.50
2018-09-27T10:00:39.437Z,3.00
2018-09-27T10:03:08.425Z,3.30
2018-09-27T10:05:37.690Z,2.83
2018-09-27T10:08:06.111Z,2.73
2018-09-27T10:10:34.676Z,2.90
2018-09-27T10:13:02.884Z,3.07
2018-09-27T10:15:31.251Z,3.20
2018-09-27T10:18:01.009Z,3.40
2018-09-27T10:20:30.127Z,3.83
2018-09-27T10:22:58.351Z,2.93
2018-09-27T10:25:27.504Z,2.77
2018-09-27T10:27:55.920Z,2.87
2018-09-27T10:30:24.178Z,2.73
2018-09-27T10:32:52.632Z,2.90
2018-09-27T10:35:20.859Z,2.93
2018-09-27T10:37:49.236Z,2.40
2018-09-27T10:40:17.459Z,2.40
2018-09-27T10:42:48.166Z,2.40
2018-09-27T10:45:16.420Z,3.03
2018-09-27T10:47:44.922Z,3.27
2018-09-27T10:50:13.136Z,2.70
2018-09-27T10:52:41.335Z,3.00
2018-09-27T10:55:09.564Z,3.33
2018-09-27T10:57:38.360Z,3.43
2018-09-27T11:00:07.154Z,3.07
2018-09-27T11:02:35.876Z,3.27
2018-09-27T11:05:04.134Z,3.13
2018-09-27T11:07:32.344Z,2.43
2018-09-27T11:10:00.582Z,2.30
2018-09-27T11:12:29.692Z,2.80
2018-09-27T11:14:58.318Z,3.90
2018-09-27T11:17:26.513Z,3.10
2018-09-27T11:19:54.731Z,2.87
2018-09-27T11:22:22.915Z,3.17
2018-09-27T11:24:51.152Z,3.10
2018-09-27T11:27:19.411Z,2.97
2018-09-27T11:29:52.973Z,2.93
2018-09-27T11:32:26.918Z,2.87
2018-09-27T11:34:55.235Z,3.03
2018-09-27T11:37:23.455Z,2.90
2018-09-27T11:39:52.036Z,2.53
2018-09-27T11:42:20.501Z,2.58
2018-09-27T11:44:48.720Z,2.50
2018-09-27T11:47:16.931Z,2.93
2018-09-27T11:49:45.959Z,3.43
2018-09-27T11:52:14.040Z,3.00
2018-09-27T11:54:42.404Z,3.20
2018-09-27T11:57:10.603Z,2.87
2018-09-27T11:59:38.832Z,2.70
2018-09-27T12:02:07.045Z,3.03
2018-09-27T12:04:35.297Z,2.60
2018-09-27T12:07:03.500Z,2.30
2018-09-27T12:09:32.508Z,2.33
2018-09-27T12:12:00.932Z,2.77
2018-09-27T12:14:29.168Z,2.77
2018-09-27T12:16:57.445Z,2.60
2018-09-27T12:19:26.109Z,2.60
2018-09-27T12:21:54.417Z,3.20
2018-09-27T12:24:22.741Z,2.63
2018-09-27T12:26:50.988Z,2.67
2018-09-27T12:29:19.683Z,2.73
2018-09-27T12:31:47.910Z,2.63
2018-09-27T12:34:16.352Z,3.10
2018-09-27T12:36:44.644Z,2.83
2018-09-27T12:39:13.116Z,2.40
2018-09-27T12:41:41.440Z,3.20
2018-09-27T12:44:09.663Z,2.60
2018-09-27T12:46:37.971Z,2.43
2018-09-27T12:49:06.228Z,2.60
2018-09-27T12:51:34.828Z,2.50
2018-09-27T12:54:03.428Z,2.10
2018-09-27T12:56:31.684Z,2.50
2018-09-27T12:59:00.251Z,2.13
2018-09-27T13:01:28.469Z,2.20
2018-09-27T13:03:57.737Z,2.50
2018-09-27T13:06:25.974Z,2.27
2018-09-27T13:08:54.217Z,2.15
2018-09-27T13:11:22.448Z,2.33
2018-09-27T13:13:51.011Z,2.60
2018-09-27T13:16:19.714Z,2.40
2018-09-27T13:18:47.959Z,2.40
2018-09-27T13:21:16.216Z,2.00
2018-09-27T13:23:44.429Z,2.07
2018-09-27T13:26:12.648Z,1.97
2018-09-27T13:28:40.919Z,1.90
2018-09-27T13:31:09.457Z,1.77
2018-09-27T13:36:10.070Z,2.23
2018-09-27T13:38:38.329Z,1.83
2018-09-27T13:41:06.669Z,2.20
2018-09-27T13:43:35.809Z,2.00
2018-09-27T13:46:04.130Z,1.80
2018-09-27T13:48:32.351Z,1.80
2018-09-27T13:51:00.610Z,1.87
2018-09-27T13:53:28.919Z,1.80
2018-09-27T13:55:57.142Z,1.80
2018-09-27T13:58:25.335Z,1.80
2018-09-27T14:00:57.330Z,2.00
2018-09-27T14:03:25.839Z,2.00
2018-09-27T14:05:54.584Z,2.13
2018-09-27T14:08:23.033Z,1.63
2018-09-27T14:10:51.262Z,1.83
2018-09-27T14:13:19.493Z,1.60
2018-09-27T14:15:47.752Z,1.70
2018-09-27T14:18:16.003Z,1.80
2018-09-27T14:20:44.607Z,1.60
2018-09-27T14:23:12.859Z,1.80
2018-09-27T14:25:41.150Z,2.00
2018-09-27T14:28:09.379Z,2.03
2018-09-27T14:30:37.608Z,1.80
2018-09-27T14:33:05.954Z,1.92
2018-09-27T14:35:34.235Z,2.30
2018-09-27T14:38:03.062Z,2.00
2018-09-27T14:40:31.274Z,1.93
2018-09-27T14:42:59.500Z,1.80
2018-09-27T14:45:27.714Z,1.90
2018-09-27T14:47:57.086Z,1.80
2018-09-27T14:50:25.249Z,1.80
2018-09-27T14:52:53.517Z,2.10
2018-09-27T14:55:21.798Z,1.60
2018-09-27T14:57:50.480Z,1.90
2018-09-27T15:00:25.281Z,1.67
2018-09-27T15:02:53.563Z,1.97
2018-09-27T15:05:22.012Z,2.23
2018-09-27T15:07:50.300Z,1.97
2018-09-27T15:10:19.023Z,1.90
2018-09-27T15:12:47.404Z,2.30
2018-09-27T15:15:15.612Z,2.33
2018-09-27T15:17:43.854Z,2.33
2018-09-27T15:20:12.076Z,2.00
2018-09-27T15:22:40.739Z,2.27
2018-09-27T15:25:08.980Z,2.37
2018-09-27T15:27:37.228Z,2.30
2018-09-27T15:30:07.177Z,2.30
2018-09-27T15:32:35.924Z,2.57
2018-09-27T15:35:04.172Z,2.40
2018-09-27T15:37:32.434Z,2.20
2018-09-27T15:40:00.760Z,2.17
2018-09-27T15:42:28.965Z,2.20
2018-09-27T15:44:57.423Z,2.07
2018-09-27T15:47:25.653Z,2.37
2018-09-27T15:49:53.915Z,2.30
2018-09-27T15:52:22.166Z,2.03
2018-09-27T15:54:50.439Z,2.10
2018-09-27T15:57:19.404Z,2.50
2018-09-27T15:59:49.432Z,1.93
2018-09-27T16:02:19.227Z,2.37
2018-09-27T16:04:47.507Z,2.50
2018-09-27T16:07:15.753Z,2.30
2018-09-27T16:09:43.958Z,2.50
2018-09-27T16:12:14.739Z,2.40
2018-09-27T16:14:43.913Z,2.70
2018-09-27T16:17:12.131Z,2.40
2018-09-27T16:19:41.017Z,2.77
2018-09-27T16:22:09.220Z,2.77
2018-09-27T16:24:37.440Z,3.00
2018-09-27T16:27:06.079Z,2.57
2018-09-27T16:29:36.517Z,2.50
2018-09-27T16:32:04.723Z,2.57
2018-09-27T16:34:32.947Z,2.93
2018-09-27T16:37:01.909Z,2.87
2018-09-27T16:39:35.709Z,2.90
2018-09-27T16:42:03.982Z,2.77
2018-09-27T16:44:32.269Z,2.50
2018-09-27T16:47:00.493Z,2.57
2018-09-27T16:49:30.685Z,3.00
2018-09-27T16:51:59.277Z,2.60
2018-09-27T16:54:27.792Z,2.50
2018-09-27T16:56:56.030Z,2.80
2018-09-27T16:59:24.312Z,3.00
2018-09-27T17:01:52.566Z,2.90
2018-09-27T17:04:20.972Z,2.70
2018-09-27T17:06:49.960Z,3.17
2018-09-27T17:09:18.218Z,2.70
2018-09-27T17:11:46.465Z,2.93
2018-09-27T17:14:14.733Z,3.40
2018-09-27T17:16:43.124Z,3.30
2018-09-27T17:19:11.344Z,3.73
2018-09-27T17:21:39.722Z,2.70
2018-09-27T17:24:08.008Z,2.70
2018-09-27T17:26:36.248Z,3.07
2018-09-27T17:29:04.485Z,2.50
2018-09-27T17:31:32.717Z,2.40
2018-09-27T17:34:00.967Z,2.70
2018-09-27T17:36:29.164Z,2.60
2018-09-27T17:38:57.703Z,2.70
2018-09-27T17:41:26.166Z,2.77
2018-09-27T17:43:54.385Z,2.30
2018-09-27T17:46:22.585Z,2.40
2018-09-27T17:48:50.822Z,2.20
2018-09-27T17:51:19.025Z,2.63
2018-09-27T17:53:47.296Z,2.60
2018-09-27T17:56:15.512Z,2.47
2018-09-27T17:58:43.828Z,2.30
2018-09-27T18:01:11.976Z,2.20
2018-09-27T18:03:40.197Z,2.90
2018-09-27T18:06:08.407Z,2.47
2018-09-27T18:08:36.665Z,2.67
2018-09-27T18:11:04.864Z,2.60
2018-09-27T18:13:33.153Z,2.63
2018-09-27T18:16:01.335Z,2.50
2018-09-27T18:18:29.553Z,2.90
2018-09-27T18:20:57.812Z,3.20
2018-09-27T18:23:26.026Z,3.03
2018-09-27T18:25:54.259Z,2.97
2018-09-27T18:28:22.474Z,3.07
2018-09-27T18:30:50.939Z,3.27
2018-09-27T18:33:19.169Z,3.13
2018-09-27T18:35:47.755Z,2.90
2018-09-27T18:38:16.107Z,3.03
2018-09-27T18:40:44.277Z,3.10
2018-09-27T18:43:12.636Z,2.93
2018-09-27T18:45:40.796Z,2.90
2018-09-27T18:48:10.127Z,2.90
2018-09-27T18:50:38.407Z,2.80
2018-09-27T18:53:10.390Z,2.77
2018-09-27T18:55:38.743Z,3.03
2018-09-27T18:58:06.982Z,2.80
2018-09-27T19:00:35.198Z,2.73
2018-09-27T19:03:04.197Z,3.00
2018-09-27T19:05:33.176Z,2.63
2018-09-27T19:08:01.440Z,2.57
2018-09-27T19:10:29.894Z,2.60
2018-09-27T19:12:58.167Z,3.00
2018-09-27T19:15:26.401Z,2.70
2018-09-27T19:17:54.607Z,2.90
2018-09-27T19:20:22.824Z,3.30
2018-09-27T19:22:51.084Z,3.13
2018-09-27T19:25:19.368Z,2.80
2018-09-27T19:27:47.612Z,2.83
2018-09-27T19:30:15.848Z,2.53
2018-09-27T19:32:44.040Z,3.07
2018-09-27T19:35:12.271Z,2.60
2018-09-27T19:37:40.499Z,2.70
2018-09-27T19:40:08.711Z,2.60
2018-09-27T19:42:36.949Z,2.87
2018-09-27T19:45:05.419Z,2.70
2018-09-27T19:47:33.636Z,2.80
2018-09-27T19:50:01.875Z,2.80
2018-09-27T19:52:30.085Z,2.80
2018-09-27T19:54:58.866Z,3.60
2018-09-27T19:57:27.071Z,3.07
2018-09-27T19:59:55.313Z,3.30
2018-09-27T20:02:23.564Z,3.20
2018-09-27T20:04:51.803Z,3.07
2018-09-27T20:07:20.020Z,3.00
2018-09-27T20:09:48.255Z,3.60
2018-09-27T20:12:16.485Z,3.70
2018-09-27T20:14:44.700Z,3.70
2018-09-27T20:17:12.914Z,3.10
2018-09-27T20:19:41.115Z,3.40
2018-09-27T20:22:11.086Z,3.03
2018-09-27T20:24:39.303Z,3.10
2018-09-27T20:27:08.001Z,3.20
2018-09-27T20:29:36.243Z,3.40
2018-09-27T20:32:04.587Z,3.20
2018-09-27T20:34:32.836Z,3.37
2018-09-27T20:37:01.064Z,3.17
2018-09-27T20:39:29.273Z,3.40
2018-09-27T20:41:57.510Z,3.40
2018-09-27T20:44:25.730Z,3.80
2018-09-27T20:46:54.015Z,3.20
2018-09-27T20:49:22.245Z,4.00
2018-09-27T20:51:50.528Z,3.80
2018-09-27T20:54:19.461Z,3.60
2018-09-27T20:56:47.796Z,3.60
2018-09-27T20:59:16.024Z,3.43
2018-09-27T21:01:44.248Z,3.37
2018-09-27T21:04:12.471Z,3.83
2018-09-27T21:06:41.277Z,3.40
2018-09-27T21:09:11.320Z,3.90
2018-09-27T21:11:39.923Z,3.50
2018-09-27T21:14:08.462Z,3.70
2018-09-27T21:16:36.684Z,3.90
2018-09-27T21:19:04.901Z,3.90
2018-09-27T21:21:33.124Z,3.93
2018-09-27T21:24:01.352Z,3.77
2018-09-27T21:26:29.608Z,4.10
2018-09-27T21:28:57.905Z,4.03
2018-09-27T21:31:26.145Z,3.47
2018-09-27T21:33:54.359Z,4.43
2018-09-27T21:36:22.593Z,3.70
2018-09-27T21:38:50.819Z,3.87
2018-09-27T21:41:20.048Z,4.03
2018-09-27T21:43:50.467Z,4.60
2018-09-27T21:46:19.492Z,4.30
2018-09-27T21:48:48.814Z,4.23
2018-09-27T21:51:17.403Z,4.33
2018-09-27T21:53:46.486Z,4.53
2018-09-27T21:56:14.796Z,4.50
2018-09-27T21:58:43.194Z,3.57
2018-09-27T22:01:11.487Z,4.37
2018-09-27T22:03:39.701Z,4.17
2018-09-27T22:06:07.978Z,4.67
2018-09-27T22:08:36.288Z,4.07
2018-09-27T22:11:04.548Z,5.00
2018-09-27T22:13:32.768Z,4.60
2018-09-27T22:16:00.984Z,4.70
2018-09-27T22:18:35.615Z,4.43
2018-09-27T22:21:03.843Z,4.10
2018-09-27T22:23:42.842Z,4.23
2018-09-27T22:26:11.122Z,4.07
2018-09-27T22:28:39.405Z,4.60
2018-09-27T22:31:08.076Z,4.70
2018-09-27T22:33:37.159Z,4.63
2018-09-27T22:36:09.221Z,4.13
2018-09-27T22:38:37.755Z,4.93
2018-09-27T22:41:06.059Z,4.33
2018-09-27T22:43:34.283Z,4.20
2018-09-27T22:46:02.512Z,3.97
2018-09-27T22:48:30.756Z,3.80
2018-09-27T22:50:59.049Z,3.50
2018-09-27T22:53:27.348Z,3.40
2018-09-27T22:55:55.649Z,3.60
2018-09-27T22:58:23.898Z,3.60
2018-09-27T23:00:52.107Z,3.83
2018-09-27T23:03:20.423Z,4.17
2018-09-27T23:05:49.089Z,3.60
2018-09-27T23:08:17.348Z,3.27
2018-09-27T23:10:46.745Z,3.53
2018-09-27T23:13:14.993Z,4.00
2018-09-27T23:15:43.201Z,3.90
2018-09-27T23:18:11.419Z,4.47
2018-09-27T23:20:39.889Z,3.87
2018-09-27T23:23:08.893Z,4.23
2018-09-27T23:25:37.101Z,4.03
2018-09-27T23:28:05.437Z,3.63
2018-09-27T23:30:33.644Z,3.90
2018-09-27T23:33:01.901Z,3.67
2018-09-27T23:35:30.115Z,4.03
2018-09-27T23:37:58.396Z,4.07
2018-09-27T23:40:26.623Z,4.40
2018-09-27T23:42:54.855Z,4.40
2018-09-27T23:45:23.055Z,4.43
2018-09-27T23:47:51.284Z,4.70
2018-09-27T23:50:19.517Z,4.70
2018-09-27T23:52:47.756Z,4.30
2018-09-27T23:55:15.989Z,4.63
2018-09-27T23:57:44.226Z,4.67
